createdAt,value
2023-02-06T00:02:19.780Z,-3.14
2023-02-06T00:07:25.787Z,-4.24
2023-02-06T00:12:30.188Z,-3.42
2023-02-06T00:17:37.439Z,-3.09
2023-02-06T00:22:43.420Z,-3.43
2023-02-06T00:27:47.939Z,-3.44
2023-02-06T00:32:52.592Z,-4.30
2023-02-06T00:37:59.877Z,-4.45
2023-02-06T00:43:05.345Z,-4.54
2023-02-06T00:48:10.307Z,-4.34
2023-02-06T00:53:16.274Z,-4.68
2023-02-06T00:58:20.711Z,-3.73
2023-02-06T01:03:25.474Z,-3.69
2023-02-06T01:08:31.594Z,-3.75
2023-02-06T01:13:37.265Z,-4.37
2023-02-06T01:18:42.657Z,-4.09
2023-02-06T01:23:49.512Z,-3.24
2023-02-06T01:28:55.825Z,-3.99
2023-02-06T01:34:01.721Z,-4.40
2023-02-06T01:39:08.136Z,-3.72
2023-02-06T01:44:16.176Z,-3.42
2023-02-06T01:49:26.086Z,-3.29
2023-02-06T01:54:32.711Z,-4.10
2023-02-06T01:59:38.170Z,-4.04
2023-02-06T02:04:42.943Z,-3.70
2023-02-06T02:09:49.179Z,-4.50
2023-02-06T02:14:56.247Z,-4.38
2023-02-06T02:20:34.278Z,-4.25
2023-02-06T02:26:17.165Z,-4.06
2023-02-06T02:32:03.746Z,-4.02
2023-02-06T02:37:17.510Z,-3.72
2023-02-06T02:42:34.017Z,-4.09
2023-02-06T02:47:47.419Z,-3.77
2023-02-06T02:52:54.518Z,-3.95
2023-02-06T02:58:05.053Z,-3.24
2023-02-06T03:03:12.524Z,-3.61
2023-02-06T03:08:28.201Z,-4.06
2023-02-06T03:13:38.412Z,-3.48
2023-02-06T03:18:47.685Z,-3.19
2023-02-06T03:23:59.520Z,-2.96
2023-02-06T03:29:07.619Z,-2.62
2023-02-06T03:34:17.948Z,-3.82
2023-02-06T03:39:24.695Z,-2.96
2023-02-06T03:44:34.542Z,-3.48
2023-02-06T03:49:42.054Z,-3.29
2023-02-06T03:54:54.191Z,-3.14
2023-02-06T03:59:58.817Z,-4.54
2023-02-06T04:05:03.265Z,-4.28
2023-02-06T04:10:09.695Z,-3.19
2023-02-06T04:15:14.149Z,-3.11
2023-02-06T04:20:18.806Z,-4.14
2023-02-06T04:25:24.914Z,-4.79
2023-02-06T04:30:29.591Z,-4.62
2023-02-06T04:35:34.703Z,-4.67
2023-02-06T04:40:41.028Z,-4.30
2023-02-06T04:45:45.641Z,-4.71
2023-02-06T04:50:51.091Z,-3.85
2023-02-06T04:56:03.433Z,-4.44
2023-02-06T05:01:08.727Z,-4.44
2023-02-06T05:06:13.523Z,-4.60
2023-02-06T05:11:19.542Z,-4.51
2023-02-06T05:16:24.004Z,-4.79
2023-02-06T05:21:28.868Z,-4.33
2023-02-06T05:26:34.881Z,-4.58
2023-02-06T05:31:39.526Z,-4.46
2023-02-06T05:36:44.146Z,-4.35
2023-02-06T05:41:50.204Z,-4.17
2023-02-06T05:46:54.859Z,-3.61
2023-02-06T05:51:59.478Z,-3.98
2023-02-06T05:57:05.560Z,-3.75
2023-02-06T06:02:10.237Z,-3.88
2023-02-06T06:07:15.057Z,-3.88
2023-02-06T06:12:20.995Z,-3.89
2023-02-06T06:17:26.532Z,-3.38
2023-02-06T06:22:33.922Z,-3.46
2023-02-06T06:27:40.364Z,-3.31
2023-02-06T06:32:46.035Z,-3.01
2023-02-06T06:37:50.931Z,-2.80
2023-02-06T06:42:56.902Z,-2.50
2023-02-06T06:48:01.667Z,-3.18
2023-02-06T06:53:06.219Z,-2.24
2023-02-06T06:58:12.550Z,-2.88
2023-02-06T07:03:17.165Z,-3.71
2023-02-06T07:08:21.716Z,-3.72
2023-02-06T07:13:27.777Z,-3.48
2023-02-06T07:18:32.811Z,-2.99
2023-02-06T07:23:39.136Z,-3.43
2023-02-06T07:28:45.103Z,-2.47
2023-02-06T07:33:52.237Z,-2.96
2023-02-06T07:38:59.015Z,-3.06
2023-02-06T07:44:08.725Z,-2.35
2023-02-06T07:49:14.965Z,-2.47
2023-02-06T07:54:20.871Z,-2.29
2023-02-06T07:59:27.130Z,-2.48
2023-02-06T08:04:35.337Z,-2.11
2023-02-06T08:09:40.134Z,-2.82
2023-02-06T08:14:46.141Z,-1.93
2023-02-06T08:19:50.759Z,-1.44
2023-02-06T08:24:55.422Z,-1.56
2023-02-06T08:30:01.272Z,-2.64
2023-02-06T08:35:06.534Z,-2.71
2023-02-06T08:40:12.308Z,-2.47
2023-02-06T08:45:18.341Z,-1.26
2023-02-06T08:50:22.898Z,-1.88
2023-02-06T08:55:27.354Z,-2.19
2023-02-06T09:00:33.247Z,-1.90
2023-02-06T09:05:38.196Z,-1.58
2023-02-06T09:10:42.738Z,-0.15
2023-02-06T09:15:53.611Z,-0.90
2023-02-06T09:21:06.590Z,-1.63
2023-02-06T09:26:11.898Z,-2.01
2023-02-06T09:31:17.807Z,-1.31
2023-02-06T09:36:23.215Z,-2.09
2023-02-06T09:41:32.513Z,-1.93
2023-02-06T09:46:47.118Z,-1.80
2023-02-06T09:52:08.070Z,-2.23
2023-02-06T09:57:19.164Z,-2.53
2023-02-06T10:02:40.055Z,-2.04
2023-02-06T10:07:58.129Z,-1.49
2023-02-06T10:13:10.236Z,-1.35
2023-02-06T10:18:22.802Z,-0.22
2023-02-06T10:23:34.939Z,-1.68
2023-02-06T10:28:41.765Z,-1.49
2023-02-06T10:34:01.530Z,-1.65
2023-02-06T10:39:21.010Z,-1.63
2023-02-06T10:44:31.869Z,-0.98
2023-02-06T10:49:45.623Z,-1.09
2023-02-06T10:54:53.904Z,-1.38
2023-02-06T11:00:01.629Z,-1.68
2023-02-06T11:05:11.661Z,-1.68
2023-02-06T11:10:18.411Z,-1.76
2023-02-06T11:15:32.744Z,-1.94
2023-02-06T11:20:43.093Z,-1.76
2023-02-06T11:25:51.717Z,-1.44
2023-02-06T11:30:58.756Z,-1.79
2023-02-06T11:36:05.544Z,-1.97
2023-02-06T11:41:20.327Z,-2.26
2023-02-06T11:46:27.520Z,-1.95
2023-02-06T11:51:54.135Z,-2.20
2023-02-06T11:57:20.370Z,-2.49
2023-02-06T12:02:28.582Z,-1.61
2023-02-06T12:07:38.999Z,-2.11
2023-02-06T12:12:47.533Z,-1.83
2023-02-06T12:17:56.612Z,-1.74
2023-02-06T12:23:07.106Z,-0.76
2023-02-06T12:28:17.215Z,-0.02
2023-02-06T12:33:25.675Z,-1.12
2023-02-06T12:38:41.099Z,-1.14
2023-02-06T12:43:54.808Z,-1.11
2023-02-06T12:49:07.833Z,-0.96
2023-02-06T12:54:18.545Z,-1.31
2023-02-06T12:59:57.828Z,-1.23
2023-02-06T13:05:06.115Z,-1.46
2023-02-06T13:10:21.483Z,-0.97
2023-02-06T13:15:28.790Z,-1.25
2023-02-06T13:20:33.603Z,-0.43
2023-02-06T13:25:54.508Z,-1.60
2023-02-06T13:31:02.558Z,-1.57
2023-02-06T13:36:10.134Z,-1.17
2023-02-06T13:41:32.831Z,-0.16
2023-02-06T13:47:01.603Z,-0.17
2023-02-06T13:52:13.069Z,-1.09
2023-02-06T13:57:29.497Z,-0.51
2023-02-06T14:02:38.618Z,-1.27
2023-02-06T14:07:55.543Z,-0.99
2023-02-06T14:13:18.542Z,-1.21
2023-02-06T14:18:44.841Z,-1.67
2023-02-06T14:24:07.647Z,-1.00
2023-02-06T14:29:26.973Z,-1.67
2023-02-06T14:34:50.513Z,-1.88
2023-02-06T14:39:56.502Z,-2.41
2023-02-06T14:45:06.275Z,-2.44
2023-02-06T14:50:20.140Z,-2.44
2023-02-06T14:55:31.946Z,-1.80
2023-02-06T15:00:37.577Z,-2.27
2023-02-06T15:05:41.574Z,-2.36
2023-02-06T15:10:45.979Z,-1.39
2023-02-06T15:15:57.228Z,-1.74
2023-02-06T15:21:03.585Z,-1.64
2023-02-06T15:26:19.698Z,-2.00
2023-02-06T15:31:25.816Z,-1.53
2023-02-06T15:36:32.775Z,-2.04
2023-02-06T15:41:37.385Z,-2.48
2023-02-06T15:46:43.558Z,-2.69
2023-02-06T15:51:58.529Z,-3.10
2023-02-06T15:57:06.690Z,-1.90
2023-02-06T16:02:24.579Z,-2.21
2023-02-06T16:07:32.105Z,-2.80
2023-02-06T16:12:39.401Z,-2.93
2023-02-06T16:17:45.081Z,-2.87
2023-02-06T16:22:48.990Z,-3.72
2023-02-06T16:27:54.252Z,-4.07
2023-02-06T16:33:09.447Z,-3.40
2023-02-06T16:38:13.837Z,-2.64
2023-02-06T16:43:18.074Z,-3.24
2023-02-06T16:48:23.738Z,-2.99
2023-02-06T16:53:28.725Z,-2.96
2023-02-06T16:58:35.150Z,-2.82
2023-02-06T17:03:42.650Z,-4.29
2023-02-06T17:08:47.477Z,-3.65
2023-02-06T17:13:51.821Z,-3.58
2023-02-06T17:18:57.672Z,-4.07
2023-02-06T17:24:02.102Z,-4.66
2023-02-06T17:29:06.460Z,-4.53
2023-02-06T17:34:12.324Z,-3.43
2023-02-06T17:39:16.708Z,-4.96
2023-02-06T17:44:21.250Z,-5.29
2023-02-06T17:49:26.932Z,-5.43
2023-02-06T17:54:30.893Z,-5.56
2023-02-06T17:59:35.561Z,-5.43
2023-02-06T18:04:41.444Z,-4.84
2023-02-06T18:09:47.161Z,-5.35
2023-02-06T18:14:51.539Z,-5.66
2023-02-06T18:19:57.350Z,-5.75
2023-02-06T18:25:05.262Z,-6.02
2023-02-06T18:30:11.183Z,-5.84
2023-02-06T18:35:17.242Z,-6.03
2023-02-06T18:40:21.771Z,-6.15
2023-02-06T18:45:31.322Z,-5.84
2023-02-06T18:50:41.156Z,-6.49
2023-02-06T18:55:45.377Z,-6.36
2023-02-06T19:00:49.695Z,-6.01
2023-02-06T19:05:57.425Z,-6.20
2023-02-06T19:11:04.686Z,-4.19
2023-02-06T19:16:13.924Z,-4.07
2023-02-06T19:21:21.736Z,-3.78
2023-02-06T19:26:26.837Z,-3.92
2023-02-06T19:31:32.419Z,-3.65
2023-02-06T19:36:38.679Z,-3.03
2023-02-06T19:41:43.328Z,-3.74
2023-02-06T19:46:47.707Z,-3.37
2023-02-06T19:51:53.581Z,-3.69
2023-02-06T19:56:57.929Z,-3.65
2023-02-06T20:02:03.668Z,-3.54
2023-02-06T20:07:09.618Z,-4.00
2023-02-06T20:12:14.369Z,-3.40
2023-02-06T20:17:18.682Z,-4.02
2023-02-06T20:22:24.595Z,-3.51
2023-02-06T20:27:29.304Z,-3.99
2023-02-06T20:32:33.726Z,-4.12
2023-02-06T20:37:39.670Z,-4.91
2023-02-06T20:42:44.638Z,-5.24
2023-02-06T20:47:49.041Z,-5.43
2023-02-06T20:52:54.923Z,-5.03
2023-02-06T20:57:59.374Z,-4.55
2023-02-06T21:03:03.830Z,-4.47
2023-02-06T21:08:10.000Z,-4.39
2023-02-06T21:13:14.480Z,-4.35
2023-02-06T21:18:18.912Z,-4.02
2023-02-06T21:23:25.136Z,-4.49
2023-02-06T21:28:29.474Z,-4.54
2023-02-06T21:33:34.096Z,-4.22
2023-02-06T21:38:40.683Z,-4.40
2023-02-06T21:43:45.744Z,-4.41
2023-02-06T21:48:54.109Z,-4.54
2023-02-06T21:53:59.994Z,-4.43
2023-02-06T21:59:04.566Z,-4.13
2023-02-06T22:04:10.159Z,-3.59
2023-02-06T22:09:18.908Z,-4.22
2023-02-06T22:14:23.203Z,-4.40
2023-02-06T22:19:27.677Z,-4.14
2023-02-06T22:24:33.418Z,-4.49
2023-02-06T22:29:37.351Z,-4.63
2023-02-06T22:34:41.596Z,-4.41
2023-02-06T22:39:47.631Z,-4.43
2023-02-06T22:44:52.160Z,-4.75
2023-02-06T22:49:56.343Z,-4.92
2023-02-06T22:55:03.319Z,-5.07
2023-02-06T23:00:11.673Z,-5.31
2023-02-06T23:05:16.079Z,-5.27
2023-02-06T23:10:21.888Z,-4.98
2023-02-06T23:15:26.573Z,-4.25
2023-02-06T23:20:32.633Z,-4.15
2023-02-06T23:25:44.653Z,-4.26
2023-02-06T23:30:49.232Z,-4.62
2023-02-06T23:35:53.606Z,-4.74
2023-02-06T23:41:05.829Z,-4.78
2023-02-06T23:46:12.438Z,-4.38
2023-02-06T23:51:17.464Z,-4.49
2023-02-06T23:56:26.624Z,-3.93
